sensor_id;sensor_type;location;lat;lon;timestamp;temperature;humidity
9845;DHT22;4961;50.782;6.080;2022-07-29T00:01:41;19.70;99.90
9845;DHT22;4961;50.782;6.080;2022-07-29T00:04:10;19.60;99.90
9845;DHT22;4961;50.782;6.080;2022-07-29T00:06:40;19.60;99.90
9845;DHT22;4961;50.782;6.080;2022-07-29T00:09:09;19.60;99.90
9845;DHT22;4961;50.782;6.080;2022-07-29T00:11:38;19.60;99.90
9845;DHT22;4961;50.782;6.080;2022-07-29T00:14:08;19.60;99.90
9845;DHT22;4961;50.782;6.080;2022-07-29T00:16:37;19.50;99.90
9845;DHT22;4961;50.782;6.080;2022-07-29T00:19:06;19.50;99.90
9845;DHT22;4961;50.782;6.080;2022-07-29T00:21:34;19.40;99.90
9845;DHT22;4961;50.782;6.080;2022-07-29T00:24:03;19.40;99.90
9845;DHT22;4961;50.782;6.080;2022-07-29T00:26:32;19.40;99.90
9845;DHT22;4961;50.782;6.080;2022-07-29T00:29:01;19.40;99.90
9845;DHT22;4961;50.782;6.080;2022-07-29T00:31:51;19.30;99.90
9845;DHT22;4961;50.782;6.080;2022-07-29T00:34:19;19.30;99.90
9845;DHT22;4961;50.782;6.080;2022-07-29T00:37:05;19.20;99.90
9845;DHT22;4961;50.782;6.080;2022-07-29T00:39:34;19.20;99.90
9845;DHT22;4961;50.782;6.080;2022-07-29T00:42:03;19.20;99.90
9845;DHT22;4961;50.782;6.080;2022-07-29T00:44:36;19.20;99.90
9845;DHT22;4961;50.782;6.080;2022-07-29T00:47:06;19.10;99.90
9845;DHT22;4961;50.782;6.080;2022-07-29T00:49:35;19.10;99.90
9845;DHT22;4961;50.782;6.080;2022-07-29T00:52:06;19.10;99.90
9845;DHT22;4961;50.782;6.080;2022-07-29T00:54:35;19.10;99.90
9845;DHT22;4961;50.782;6.080;2022-07-29T00:57:10;19.00;99.90
9845;DHT22;4961;50.782;6.080;2022-07-29T00:59:39;19.00;99.90
9845;DHT22;4961;50.782;6.080;2022-07-29T01:02:09;19.00;99.90
9845;DHT22;4961;50.782;6.080;2022-07-29T01:04:38;19.00;99.90
9845;DHT22;4961;50.782;6.080;2022-07-29T01:07:07;19.00;99.90
9845;DHT22;4961;50.782;6.080;2022-07-29T01:09:37;19.00;99.90
9845;DHT22;4961;50.782;6.080;2022-07-29T01:12:14;19.10;99.90
9845;DHT22;4961;50.782;6.080;2022-07-29T01:14:43;19.10;99.90
9845;DHT22;4961;50.782;6.080;2022-07-29T01:17:18;19.10;99.90
9845;DHT22;4961;50.782;6.080;2022-07-29T01:19:51;19.10;99.90
9845;DHT22;4961;50.782;6.080;2022-07-29T01:22:31;19.10;99.90
9845;DHT22;4961;50.782;6.080;2022-07-29T01:25:12;19.10;99.90
9845;DHT22;4961;50.782;6.080;2022-07-29T01:27:57;19.10;99.90
9845;DHT22;4961;50.782;6.080;2022-07-29T01:30:30;19.10;99.90
9845;DHT22;4961;50.782;6.080;2022-07-29T01:33:05;19.10;99.90
9845;DHT22;4961;50.782;6.080;2022-07-29T01:35:38;19.10;99.90
9845;DHT22;4961;50.782;6.080;2022-07-29T01:38:12;19.10;99.90
9845;DHT22;4961;50.782;6.080;2022-07-29T01:40:46;19.10;99.90
9845;DHT22;4961;50.782;6.080;2022-07-29T01:43:18;19.00;99.90
9845;DHT22;4961;50.782;6.080;2022-07-29T01:45:53;19.00;99.90
9845;DHT22;4961;50.782;6.080;2022-07-29T01:48:40;19.00;99.90
9845;DHT22;4961;50.782;6.080;2022-07-29T01:51:14;19.00;99.90
9845;DHT22;4961;50.782;6.080;2022-07-29T01:53:47;19.00;99.90
9845;DHT22;4961;50.782;6.080;2022-07-29T01:56:20;18.80;99.90
9845;DHT22;4961;50.782;6.080;2022-07-29T01:58:52;18.80;99.90
9845;DHT22;4961;50.782;6.080;2022-07-29T02:01:24;18.80;99.90
9845;DHT22;4961;50.782;6.080;2022-07-29T02:03:53;18.70;99.90
9845;DHT22;4961;50.782;6.080;2022-07-29T02:06:22;18.70;99.90
9845;DHT22;4961;50.782;6.080;2022-07-29T02:08:52;18.70;99.90
9845;DHT22;4961;50.782;6.080;2022-07-29T02:11:23;18.70;99.90
9845;DHT22;4961;50.782;6.080;2022-07-29T02:13:52;18.80;99.90
9845;DHT22;4961;50.782;6.080;2022-07-29T02:16:24;18.70;99.90
9845;DHT22;4961;50.782;6.080;2022-07-29T02:18:55;18.70;99.90
9845;DHT22;4961;50.782;6.080;2022-07-29T02:21:26;18.70;99.90
9845;DHT22;4961;50.782;6.080;2022-07-29T02:23:57;18.70;99.90
9845;DHT22;4961;50.782;6.080;2022-07-29T02:26:27;18.60;99.90
9845;DHT22;4961;50.782;6.080;2022-07-29T02:28:57;18.60;99.90
9845;DHT22;4961;50.782;6.080;2022-07-29T02:31:31;18.60;99.90
9845;DHT22;4961;50.782;6.080;2022-07-29T02:34:02;18.50;99.90
9845;DHT22;4961;50.782;6.080;2022-07-29T02:36:31;18.60;99.90
9845;DHT22;4961;50.782;6.080;2022-07-29T02:39:02;18.50;99.90
9845;DHT22;4961;50.782;6.080;2022-07-29T02:41:35;18.50;99.90
9845;DHT22;4961;50.782;6.080;2022-07-29T02:44:10;18.50;99.90
9845;DHT22;4961;50.782;6.080;2022-07-29T02:46:45;18.50;99.90
9845;DHT22;4961;50.782;6.080;2022-07-29T02:49:18;18.50;99.90
9845;DHT22;4961;50.782;6.080;2022-07-29T02:51:53;18.50;99.90
9845;DHT22;4961;50.782;6.080;2022-07-29T02:54:28;18.50;99.90
9845;DHT22;4961;50.782;6.080;2022-07-29T02:57:02;18.50;99.90
9845;DHT22;4961;50.782;6.080;2022-07-29T02:59:34;18.50;99.90
9845;DHT22;4961;50.782;6.080;2022-07-29T03:02:07;18.50;99.90
9845;DHT22;4961;50.782;6.080;2022-07-29T03:04:37;18.50;99.90
9845;DHT22;4961;50.782;6.080;2022-07-29T03:07:08;18.40;99.90
9845;DHT22;4961;50.782;6.080;2022-07-29T03:09:40;18.50;99.90
9845;DHT22;4961;50.782;6.080;2022-07-29T03:12:10;18.50;99.90
9845;DHT22;4961;50.782;6.080;2022-07-29T03:14:39;18.50;99.90
9845;DHT22;4961;50.782;6.080;2022-07-29T03:17:09;18.40;99.90
9845;DHT22;4961;50.782;6.080;2022-07-29T03:19:38;18.40;99.90
9845;DHT22;4961;50.782;6.080;2022-07-29T03:22:07;18.40;99.90
9845;DHT22;4961;50.782;6.080;2022-07-29T03:24:36;18.40;99.90
9845;DHT22;4961;50.782;6.080;2022-07-29T03:27:05;18.40;99.90
9845;DHT22;4961;50.782;6.080;2022-07-29T03:29:33;18.40;99.90
9845;DHT22;4961;50.782;6.080;2022-07-29T03:32:04;18.40;99.90
9845;DHT22;4961;50.782;6.080;2022-07-29T03:34:36;18.30;99.90
9845;DHT22;4961;50.782;6.080;2022-07-29T03:37:06;18.30;99.90
9845;DHT22;4961;50.782;6.080;2022-07-29T03:39:38;18.30;99.90
9845;DHT22;4961;50.782;6.080;2022-07-29T03:42:11;18.30;99.90
9845;DHT22;4961;50.782;6.080;2022-07-29T03:44:43;18.40;99.90
9845;DHT22;4961;50.782;6.080;2022-07-29T03:47:13;18.30;99.90
9845;DHT22;4961;50.782;6.080;2022-07-29T03:49:46;18.30;99.90
9845;DHT22;4961;50.782;6.080;2022-07-29T03:52:16;18.30;99.90
9845;DHT22;4961;50.782;6.080;2022-07-29T03:54:45;18.20;99.90
9845;DHT22;4961;50.782;6.080;2022-07-29T03:57:14;18.20;99.90
9845;DHT22;4961;50.782;6.080;2022-07-29T03:59:44;18.20;99.90
9845;DHT22;4961;50.782;6.080;2022-07-29T04:02:13;18.20;99.90
9845;DHT22;4961;50.782;6.080;2022-07-29T04:04:49;18.10;99.90
9845;DHT22;4961;50.782;6.080;2022-07-29T04:07:18;18.00;99.90
9845;DHT22;4961;50.782;6.080;2022-07-29T04:09:46;18.00;99.90
9845;DHT22;4961;50.782;6.080;2022-07-29T04:12:15;18.00;99.90
9845;DHT22;4961;50.782;6.080;2022-07-29T04:14:43;18.00;99.90
9845;DHT22;4961;50.782;6.080;2022-07-29T04:17:11;18.00;99.90
9845;DHT22;4961;50.782;6.080;2022-07-29T04:19:40;18.00;99.90
9845;DHT22;4961;50.782;6.080;2022-07-29T04:22:09;18.00;99.90
9845;DHT22;4961;50.782;6.080;2022-07-29T04:24:38;18.00;99.90
9845;DHT22;4961;50.782;6.080;2022-07-29T04:27:11;18.00;99.90
9845;DHT22;4961;50.782;6.080;2022-07-29T04:29:40;18.00;99.90
9845;DHT22;4961;50.782;6.080;2022-07-29T04:32:23;18.00;99.90
9845;DHT22;4961;50.782;6.080;2022-07-29T04:34:52;18.00;99.90
9845;DHT22;4961;50.782;6.080;2022-07-29T04:37:21;18.00;99.90
9845;DHT22;4961;50.782;6.080;2022-07-29T04:39:50;18.00;99.90
9845;DHT22;4961;50.782;6.080;2022-07-29T04:42:18;18.00;99.90
9845;DHT22;4961;50.782;6.080;2022-07-29T04:44:54;18.00;99.90
9845;DHT22;4961;50.782;6.080;2022-07-29T04:47:22;18.00;99.90
9845;DHT22;4961;50.782;6.080;2022-07-29T04:49:50;18.00;99.90
9845;DHT22;4961;50.782;6.080;2022-07-29T04:52:20;18.00;99.90
9845;DHT22;4961;50.782;6.080;2022-07-29T04:54:49;18.00;99.90
9845;DHT22;4961;50.782;6.080;2022-07-29T04:57:17;18.00;99.90
9845;DHT22;4961;50.782;6.080;2022-07-29T04:59:45;18.00;99.90
9845;DHT22;4961;50.782;6.080;2022-07-29T05:02:14;18.00;99.90
9845;DHT22;4961;50.782;6.080;2022-07-29T05:04:42;18.10;99.90
9845;DHT22;4961;50.782;6.080;2022-07-29T05:07:11;18.10;99.90
9845;DHT22;4961;50.782;6.080;2022-07-29T05:09:40;18.10;99.90
9845;DHT22;4961;50.782;6.080;2022-07-29T05:12:09;18.20;99.90
9845;DHT22;4961;50.782;6.080;2022-07-29T05:14:37;18.10;99.90
9845;DHT22;4961;50.782;6.080;2022-07-29T05:17:06;18.20;99.90
9845;DHT22;4961;50.782;6.080;2022-07-29T05:19:34;18.20;99.90
9845;DHT22;4961;50.782;6.080;2022-07-29T05:22:05;18.20;99.90
9845;DHT22;4961;50.782;6.080;2022-07-29T05:24:34;18.20;99.90
9845;DHT22;4961;50.782;6.080;2022-07-29T05:27:04;18.20;99.90
9845;DHT22;4961;50.782;6.080;2022-07-29T05:29:33;18.20;99.90
9845;DHT22;4961;50.782;6.080;2022-07-29T05:32:11;18.20;99.90
9845;DHT22;4961;50.782;6.080;2022-07-29T05:34:40;18.20;99.90
9845;DHT22;4961;50.782;6.080;2022-07-29T05:37:18;18.20;99.90
9845;DHT22;4961;50.782;6.080;2022-07-29T05:39:47;18.20;99.90
9845;DHT22;4961;50.782;6.080;2022-07-29T05:42:24;18.20;99.90
9845;DHT22;4961;50.782;6.080;2022-07-29T05:44:54;18.20;99.90
9845;DHT22;4961;50.782;6.080;2022-07-29T05:47:22;18.30;99.90
9845;DHT22;4961;50.782;6.080;2022-07-29T05:49:51;18.20;99.90
9845;DHT22;4961;50.782;6.080;2022-07-29T05:52:20;18.30;99.90
9845;DHT22;4961;50.782;6.080;2022-07-29T05:54:49;18.30;99.90
9845;DHT22;4961;50.782;6.080;2022-07-29T05:57:18;18.30;99.90
9845;DHT22;4961;50.782;6.080;2022-07-29T05:59:49;18.30;99.90
9845;DHT22;4961;50.782;6.080;2022-07-29T06:02:18;18.30;99.90
9845;DHT22;4961;50.782;6.080;2022-07-29T06:04:46;18.30;99.90
9845;DHT22;4961;50.782;6.080;2022-07-29T06:07:17;18.40;99.90
9845;DHT22;4961;50.782;6.080;2022-07-29T06:09:54;18.40;99.90
9845;DHT22;4961;50.782;6.080;2022-07-29T06:12:27;18.40;99.90
9845;DHT22;4961;50.782;6.080;2022-07-29T06:14:57;18.50;99.90
9845;DHT22;4961;50.782;6.080;2022-07-29T06:17:27;18.50;99.90
9845;DHT22;4961;50.782;6.080;2022-07-29T06:19:55;18.50;99.90
9845;DHT22;4961;50.782;6.080;2022-07-29T06:22:24;18.50;99.90
9845;DHT22;4961;50.782;6.080;2022-07-29T06:24:52;18.50;99.90
9845;DHT22;4961;50.782;6.080;2022-07-29T06:27:20;18.50;99.90
9845;DHT22;4961;50.782;6.080;2022-07-29T06:29:49;18.50;99.90
9845;DHT22;4961;50.782;6.080;2022-07-29T06:32:19;18.50;99.90
9845;DHT22;4961;50.782;6.080;2022-07-29T06:34:53;18.50;99.90
9845;DHT22;4961;50.782;6.080;2022-07-29T06:37:41;18.50;99.90
9845;DHT22;4961;50.782;6.080;2022-07-29T06:40:52;18.40;99.90
9845;DHT22;4961;50.782;6.080;2022-07-29T06:43:35;18.40;99.90
9845;DHT22;4961;50.782;6.080;2022-07-29T06:46:19;18.40;99.90
9845;DHT22;4961;50.782;6.080;2022-07-29T06:48:50;18.40;99.90
9845;DHT22;4961;50.782;6.080;2022-07-29T06:51:20;18.40;99.90
9845;DHT22;4961;50.782;6.080;2022-07-29T06:53:50;18.40;99.90
9845;DHT22;4961;50.782;6.080;2022-07-29T06:56:29;18.40;99.90
9845;DHT22;4961;50.782;6.080;2022-07-29T06:58:57;18.40;99.90
9845;DHT22;4961;50.782;6.080;2022-07-29T07:01:27;18.50;99.90
9845;DHT22;4961;50.782;6.080;2022-07-29T07:03:57;18.50;99.90
9845;DHT22;4961;50.782;6.080;2022-07-29T07:06:26;18.50;99.90
9845;DHT22;4961;50.782;6.080;2022-07-29T07:08:54;18.50;99.90
9845;DHT22;4961;50.782;6.080;2022-07-29T07:11:22;18.60;99.90
9845;DHT22;4961;50.782;6.080;2022-07-29T07:13:51;18.60;99.90
9845;DHT22;4961;50.782;6.080;2022-07-29T07:16:19;18.70;99.90
9845;DHT22;4961;50.782;6.080;2022-07-29T07:18:48;18.70;99.90
9845;DHT22;4961;50.782;6.080;2022-07-29T07:21:17;18.80;99.90
9845;DHT22;4961;50.782;6.080;2022-07-29T07:23:46;18.80;99.90
9845;DHT22;4961;50.782;6.080;2022-07-29T07:26:15;18.90;99.90
9845;DHT22;4961;50.782;6.080;2022-07-29T07:28:43;19.00;99.90
9845;DHT22;4961;50.782;6.080;2022-07-29T07:31:11;19.10;99.90
9845;DHT22;4961;50.782;6.080;2022-07-29T07:33:41;19.20;99.90
9845;DHT22;4961;50.782;6.080;2022-07-29T07:36:09;19.30;99.90
9845;DHT22;4961;50.782;6.080;2022-07-29T07:38:39;19.40;99.90
9845;DHT22;4961;50.782;6.080;2022-07-29T07:41:07;19.40;99.90
9845;DHT22;4961;50.782;6.080;2022-07-29T07:43:37;19.50;99.90
9845;DHT22;4961;50.782;6.080;2022-07-29T07:46:06;19.70;99.90
9845;DHT22;4961;50.782;6.080;2022-07-29T07:48:35;19.80;99.90
9845;DHT22;4961;50.782;6.080;2022-07-29T07:51:03;19.90;99.90
9845;DHT22;4961;50.782;6.080;2022-07-29T07:53:33;20.00;99.90
9845;DHT22;4961;50.782;6.080;2022-07-29T07:56:03;20.10;99.90
9845;DHT22;4961;50.782;6.080;2022-07-29T07:58:37;20.20;99.90
9845;DHT22;4961;50.782;6.080;2022-07-29T08:01:05;20.20;99.90
9845;DHT22;4961;50.782;6.080;2022-07-29T08:03:34;20.30;99.90
9845;DHT22;4961;50.782;6.080;2022-07-29T08:06:03;20.30;99.90
9845;DHT22;4961;50.782;6.080;2022-07-29T08:08:33;20.30;99.90
9845;DHT22;4961;50.782;6.080;2022-07-29T08:11:03;20.30;99.90
9845;DHT22;4961;50.782;6.080;2022-07-29T08:13:36;20.20;99.90
9845;DHT22;4961;50.782;6.080;2022-07-29T08:16:06;20.20;99.90
9845;DHT22;4961;50.782;6.080;2022-07-29T08:18:43;20.20;99.90
9845;DHT22;4961;50.782;6.080;2022-07-29T08:21:12;20.10;99.90
9845;DHT22;4961;50.782;6.080;2022-07-29T08:23:42;20.10;99.90
9845;DHT22;4961;50.782;6.080;2022-07-29T08:26:29;20.00;99.90
9845;DHT22;4961;50.782;6.080;2022-07-29T08:28:57;20.10;99.90
9845;DHT22;4961;50.782;6.080;2022-07-29T08:31:26;20.00;99.90
9845;DHT22;4961;50.782;6.080;2022-07-29T08:33:54;20.10;99.90
9845;DHT22;4961;50.782;6.080;2022-07-29T08:36:24;20.10;99.90
9845;DHT22;4961;50.782;6.080;2022-07-29T08:38:53;20.20;99.90
9845;DHT22;4961;50.782;6.080;2022-07-29T08:41:22;20.30;99.90
9845;DHT22;4961;50.782;6.080;2022-07-29T08:43:53;20.40;99.90
9845;DHT22;4961;50.782;6.080;2022-07-29T08:46:22;20.50;99.90
9845;DHT22;4961;50.782;6.080;2022-07-29T08:48:51;20.60;99.90
9845;DHT22;4961;50.782;6.080;2022-07-29T08:51:20;20.70;99.90
9845;DHT22;4961;50.782;6.080;2022-07-29T08:53:50;20.90;99.90
9845;DHT22;4961;50.782;6.080;2022-07-29T08:56:20;21.00;99.90
9845;DHT22;4961;50.782;6.080;2022-07-29T08:58:49;21.20;99.90
9845;DHT22;4961;50.782;6.080;2022-07-29T09:01:24;21.40;99.90
9845;DHT22;4961;50.782;6.080;2022-07-29T09:04:05;21.60;99.90
9845;DHT22;4961;50.782;6.080;2022-07-29T09:06:42;21.80;99.90
9845;DHT22;4961;50.782;6.080;2022-07-29T09:09:11;21.90;99.90
9845;DHT22;4961;50.782;6.080;2022-07-29T09:11:41;22.00;99.90
9845;DHT22;4961;50.782;6.080;2022-07-29T09:14:12;22.20;99.90
9845;DHT22;4961;50.782;6.080;2022-07-29T09:16:47;22.30;99.90
9845;DHT22;4961;50.782;6.080;2022-07-29T09:19:25;22.50;99.90
9845;DHT22;4961;50.782;6.080;2022-07-29T09:21:56;22.60;99.90
9845;DHT22;4961;50.782;6.080;2022-07-29T09:24:41;22.80;99.90
9845;DHT22;4961;50.782;6.080;2022-07-29T09:27:17;22.90;99.90
9845;DHT22;4961;50.782;6.080;2022-07-29T09:29:46;23.10;99.90
9845;DHT22;4961;50.782;6.080;2022-07-29T09:32:17;23.40;99.90
9845;DHT22;4961;50.782;6.080;2022-07-29T09:34:46;23.60;99.90
9845;DHT22;4961;50.782;6.080;2022-07-29T09:37:26;23.90;99.90
9845;DHT22;4961;50.782;6.080;2022-07-29T09:39:54;24.30;99.90
9845;DHT22;4961;50.782;6.080;2022-07-29T09:42:32;24.50;99.90
9845;DHT22;4961;50.782;6.080;2022-07-29T09:45:01;24.60;99.90
9845;DHT22;4961;50.782;6.080;2022-07-29T09:47:43;24.70;99.90
9845;DHT22;4961;50.782;6.080;2022-07-29T09:50:13;25.00;99.90
9845;DHT22;4961;50.782;6.080;2022-07-29T09:52:48;25.20;99.90
9845;DHT22;4961;50.782;6.080;2022-07-29T09:55:27;25.20;99.90
9845;DHT22;4961;50.782;6.080;2022-07-29T09:58:16;25.20;99.90
9845;DHT22;4961;50.782;6.080;2022-07-29T10:00:46;25.20;99.90
9845;DHT22;4961;50.782;6.080;2022-07-29T10:03:16;25.20;99.90
9845;DHT22;4961;50.782;6.080;2022-07-29T10:05:46;25.20;99.90
9845;DHT22;4961;50.782;6.080;2022-07-29T10:08:25;25.00;99.90
9845;DHT22;4961;50.782;6.080;2022-07-29T10:11:09;25.30;99.90
9845;DHT22;4961;50.782;6.080;2022-07-29T10:13:38;25.70;99.90
9845;DHT22;4961;50.782;6.080;2022-07-29T10:16:07;25.90;99.90
9845;DHT22;4961;50.782;6.080;2022-07-29T10:18:39;26.10;99.90
9845;DHT22;4961;50.782;6.080;2022-07-29T10:21:08;26.30;99.90
9845;DHT22;4961;50.782;6.080;2022-07-29T10:23:48;26.60;99.90
9845;DHT22;4961;50.782;6.080;2022-07-29T10:26:17;26.70;99.90
9845;DHT22;4961;50.782;6.080;2022-07-29T10:28:47;26.90;99.90
9845;DHT22;4961;50.782;6.080;2022-07-29T10:31:25;27.10;99.90
9845;DHT22;4961;50.782;6.080;2022-07-29T10:34:10;27.20;99.90
9845;DHT22;4961;50.782;6.080;2022-07-29T10:36:54;27.30;99.90
9845;DHT22;4961;50.782;6.080;2022-07-29T10:39:38;27.40;99.90
9845;DHT22;4961;50.782;6.080;2022-07-29T10:42:18;27.50;99.90
9845;DHT22;4961;50.782;6.080;2022-07-29T10:45:02;27.80;99.90
9845;DHT22;4961;50.782;6.080;2022-07-29T10:47:31;27.90;99.90
9845;DHT22;4961;50.782;6.080;2022-07-29T10:50:08;28.10;99.90
9845;DHT22;4961;50.782;6.080;2022-07-29T10:52:54;28.30;99.90
9845;DHT22;4961;50.782;6.080;2022-07-29T10:55:35;28.60;99.90
9845;DHT22;4961;50.782;6.080;2022-07-29T10:58:16;28.60;99.90
9845;DHT22;4961;50.782;6.080;2022-07-29T11:00:46;28.60;99.90
9845;DHT22;4961;50.782;6.080;2022-07-29T11:03:43;28.50;99.90
9845;DHT22;4961;50.782;6.080;2022-07-29T11:06:18;28.60;99.90
9845;DHT22;4961;50.782;6.080;2022-07-29T11:09:16;28.60;99.90
9845;DHT22;4961;50.782;6.080;2022-07-29T11:11:46;28.60;99.90
9845;DHT22;4961;50.782;6.080;2022-07-29T11:14:17;28.70;99.90
9845;DHT22;4961;50.782;6.080;2022-07-29T11:17:00;28.80;99.90
9845;DHT22;4961;50.782;6.080;2022-07-29T11:19:34;28.80;99.90
9845;DHT22;4961;50.782;6.080;2022-07-29T11:22:10;28.90;99.90
9845;DHT22;4961;50.782;6.080;2022-07-29T11:24:42;28.90;99.90
9845;DHT22;4961;50.782;6.080;2022-07-29T11:27:31;28.70;99.90
9845;DHT22;4961;50.782;6.080;2022-07-29T11:30:07;28.60;99.90
9845;DHT22;4961;50.782;6.080;2022-07-29T11:32:38;28.60;99.90
9845;DHT22;4961;50.782;6.080;2022-07-29T11:35:13;28.70;99.90
9845;DHT22;4961;50.782;6.080;2022-07-29T11:37:46;28.70;99.90
9845;DHT22;4961;50.782;6.080;2022-07-29T11:40:21;28.70;99.90
9845;DHT22;4961;50.782;6.080;2022-07-29T11:42:50;28.10;99.90
9845;DHT22;4961;50.782;6.080;2022-07-29T11:45:25;28.10;99.90
9845;DHT22;4961;50.782;6.080;2022-07-29T11:48:18;28.20;99.90
9845;DHT22;4961;50.782;6.080;2022-07-29T11:51:09;28.40;99.90
9845;DHT22;4961;50.782;6.080;2022-07-29T11:53:46;28.40;99.90
9845;DHT22;4961;50.782;6.080;2022-07-29T11:56:21;28.40;99.90
9845;DHT22;4961;50.782;6.080;2022-07-29T11:59:02;28.60;99.90
9845;DHT22;4961;50.782;6.080;2022-07-29T12:01:34;28.80;99.90
9845;DHT22;4961;50.782;6.080;2022-07-29T12:04:03;28.90;99.90
9845;DHT22;4961;50.782;6.080;2022-07-29T12:06:33;28.90;99.90
9845;DHT22;4961;50.782;6.080;2022-07-29T12:09:08;29.10;99.90
9845;DHT22;4961;50.782;6.080;2022-07-29T12:11:40;29.00;99.90
9845;DHT22;4961;50.782;6.080;2022-07-29T12:14:25;29.10;99.90
9845;DHT22;4961;50.782;6.080;2022-07-29T12:16:54;29.20;99.90
9845;DHT22;4961;50.782;6.080;2022-07-29T12:19:24;29.30;99.90
9845;DHT22;4961;50.782;6.080;2022-07-29T12:21:54;29.40;99.90
9845;DHT22;4961;50.782;6.080;2022-07-29T12:24:42;29.40;99.90
9845;DHT22;4961;50.782;6.080;2022-07-29T12:27:16;29.40;99.90
9845;DHT22;4961;50.782;6.080;2022-07-29T12:29:56;29.40;99.90
9845;DHT22;4961;50.782;6.080;2022-07-29T12:32:31;29.50;99.90
9845;DHT22;4961;50.782;6.080;2022-07-29T12:35:03;29.60;99.90
9845;DHT22;4961;50.782;6.080;2022-07-29T12:37:33;29.60;99.90
9845;DHT22;4961;50.782;6.080;2022-07-29T12:40:11;29.60;99.90
9845;DHT22;4961;50.782;6.080;2022-07-29T12:42:40;29.50;99.90
9845;DHT22;4961;50.782;6.080;2022-07-29T12:45:09;29.40;99.90
9845;DHT22;4961;50.782;6.080;2022-07-29T12:47:51;29.30;99.90
9845;DHT22;4961;50.782;6.080;2022-07-29T12:50:20;29.30;99.90
9845;DHT22;4961;50.782;6.080;2022-07-29T12:52:52;29.30;99.90
9845;DHT22;4961;50.782;6.080;2022-07-29T12:55:44;29.20;99.90
9845;DHT22;4961;50.782;6.080;2022-07-29T12:58:26;29.10;99.90
9845;DHT22;4961;50.782;6.080;2022-07-29T13:01:09;29.10;99.90
9845;DHT22;4961;50.782;6.080;2022-07-29T13:03:52;29.00;99.90
9845;DHT22;4961;50.782;6.080;2022-07-29T13:06:33;29.00;99.90
9845;DHT22;4961;50.782;6.080;2022-07-29T13:09:08;28.90;99.90
9845;DHT22;4961;50.782;6.080;2022-07-29T13:11:40;28.90;99.90
9845;DHT22;4961;50.782;6.080;2022-07-29T13:14:29;28.80;99.90
9845;DHT22;4961;50.782;6.080;2022-07-29T13:17:04;28.90;99.90
9845;DHT22;4961;50.782;6.080;2022-07-29T13:19:35;28.90;99.90
9845;DHT22;4961;50.782;6.080;2022-07-29T13:22:04;28.70;99.90
9845;DHT22;4961;50.782;6.080;2022-07-29T13:24:33;28.40;99.90
9845;DHT22;4961;50.782;6.080;2022-07-29T13:27:03;28.20;99.90
9845;DHT22;4961;50.782;6.080;2022-07-29T13:29:31;28.10;99.90
9845;DHT22;4961;50.782;6.080;2022-07-29T13:32:00;27.90;99.90
9845;DHT22;4961;50.782;6.080;2022-07-29T13:34:28;27.60;99.90
9845;DHT22;4961;50.782;6.080;2022-07-29T13:36:57;27.50;99.90
9845;DHT22;4961;50.782;6.080;2022-07-29T13:39:26;27.40;99.90
9845;DHT22;4961;50.782;6.080;2022-07-29T13:41:54;27.40;99.90
9845;DHT22;4961;50.782;6.080;2022-07-29T13:44:27;27.40;99.90
9845;DHT22;4961;50.782;6.080;2022-07-29T13:46:55;27.00;99.90
9845;DHT22;4961;50.782;6.080;2022-07-29T13:49:25;27.00;99.90
9845;DHT22;4961;50.782;6.080;2022-07-29T13:51:54;27.00;99.90
9845;DHT22;4961;50.782;6.080;2022-07-29T13:54:22;27.20;99.90
9845;DHT22;4961;50.782;6.080;2022-07-29T13:56:53;27.10;99.90
9845;DHT22;4961;50.782;6.080;2022-07-29T13:59:21;27.00;99.90
9845;DHT22;4961;50.782;6.080;2022-07-29T14:01:51;27.00;99.90
9845;DHT22;4961;50.782;6.080;2022-07-29T14:04:20;27.20;99.90
9845;DHT22;4961;50.782;6.080;2022-07-29T14:06:50;27.20;99.90
9845;DHT22;4961;50.782;6.080;2022-07-29T14:09:18;27.30;99.90
9845;DHT22;4961;50.782;6.080;2022-07-29T14:11:47;27.40;99.90
9845;DHT22;4961;50.782;6.080;2022-07-29T14:14:17;27.30;99.90
9845;DHT22;4961;50.782;6.080;2022-07-29T14:16:45;27.30;99.90
9845;DHT22;4961;50.782;6.080;2022-07-29T14:19:19;27.40;99.90
9845;DHT22;4961;50.782;6.080;2022-07-29T14:21:47;27.40;99.90
9845;DHT22;4961;50.782;6.080;2022-07-29T14:24:16;27.40;99.90
9845;DHT22;4961;50.782;6.080;2022-07-29T14:26:49;27.50;99.90
9845;DHT22;4961;50.782;6.080;2022-07-29T14:29:18;27.60;99.90
9845;DHT22;4961;50.782;6.080;2022-07-29T14:31:46;27.80;99.90
9845;DHT22;4961;50.782;6.080;2022-07-29T14:34:15;27.80;99.90
9845;DHT22;4961;50.782;6.080;2022-07-29T14:36:44;27.80;99.90
9845;DHT22;4961;50.782;6.080;2022-07-29T14:39:13;27.70;99.90
9845;DHT22;4961;50.782;6.080;2022-07-29T14:41:42;27.50;99.90
9845;DHT22;4961;50.782;6.080;2022-07-29T14:44:11;27.40;99.90
9845;DHT22;4961;50.782;6.080;2022-07-29T14:46:40;27.40;99.90
9845;DHT22;4961;50.782;6.080;2022-07-29T14:49:15;27.30;99.90
9845;DHT22;4961;50.782;6.080;2022-07-29T14:51:45;27.20;99.90
9845;DHT22;4961;50.782;6.080;2022-07-29T14:54:14;27.20;99.90
9845;DHT22;4961;50.782;6.080;2022-07-29T14:56:43;27.30;99.90
9845;DHT22;4961;50.782;6.080;2022-07-29T14:59:12;27.50;99.90
9845;DHT22;4961;50.782;6.080;2022-07-29T15:01:41;27.60;99.90
9845;DHT22;4961;50.782;6.080;2022-07-29T15:04:09;27.60;99.90
9845;DHT22;4961;50.782;6.080;2022-07-29T15:06:38;27.60;99.90
9845;DHT22;4961;50.782;6.080;2022-07-29T15:09:08;27.70;99.90
9845;DHT22;4961;50.782;6.080;2022-07-29T15:11:36;27.60;99.90
9845;DHT22;4961;50.782;6.080;2022-07-29T15:14:05;27.60;99.90
9845;DHT22;4961;50.782;6.080;2022-07-29T15:16:35;27.60;99.90
9845;DHT22;4961;50.782;6.080;2022-07-29T15:19:04;27.50;99.90
9845;DHT22;4961;50.782;6.080;2022-07-29T15:21:32;27.40;99.90
9845;DHT22;4961;50.782;6.080;2022-07-29T15:24:08;27.20;99.90
9845;DHT22;4961;50.782;6.080;2022-07-29T15:26:37;27.20;99.90
9845;DHT22;4961;50.782;6.080;2022-07-29T15:29:06;27.00;99.90
9845;DHT22;4961;50.782;6.080;2022-07-29T15:31:34;26.90;99.90
9845;DHT22;4961;50.782;6.080;2022-07-29T15:34:03;26.90;99.90
9845;DHT22;4961;50.782;6.080;2022-07-29T15:36:32;27.00;99.90
9845;DHT22;4961;50.782;6.080;2022-07-29T15:39:20;27.10;99.90
9845;DHT22;4961;50.782;6.080;2022-07-29T15:41:49;27.10;99.90
9845;DHT22;4961;50.782;6.080;2022-07-29T15:44:19;27.10;99.90
9845;DHT22;4961;50.782;6.080;2022-07-29T15:46:47;27.10;99.90
9845;DHT22;4961;50.782;6.080;2022-07-29T15:49:33;27.00;99.90
9845;DHT22;4961;50.782;6.080;2022-07-29T15:52:16;26.80;99.90
9845;DHT22;4961;50.782;6.080;2022-07-29T15:54:53;26.70;99.90
9845;DHT22;4961;50.782;6.080;2022-07-29T15:57:23;26.50;99.90
9845;DHT22;4961;50.782;6.080;2022-07-29T15:59:51;26.30;99.90
9845;DHT22;4961;50.782;6.080;2022-07-29T16:02:20;26.30;99.90
9845;DHT22;4961;50.782;6.080;2022-07-29T16:04:48;26.20;99.90
9845;DHT22;4961;50.782;6.080;2022-07-29T16:07:17;26.20;99.90
9845;DHT22;4961;50.782;6.080;2022-07-29T16:09:45;26.20;99.90
9845;DHT22;4961;50.782;6.080;2022-07-29T16:12:20;26.20;99.90
9845;DHT22;4961;50.782;6.080;2022-07-29T16:14:48;26.20;99.90
9845;DHT22;4961;50.782;6.080;2022-07-29T16:17:18;26.10;99.90
9845;DHT22;4961;50.782;6.080;2022-07-29T16:19:47;26.00;99.90
9845;DHT22;4961;50.782;6.080;2022-07-29T16:22:15;25.90;99.90
9845;DHT22;4961;50.782;6.080;2022-07-29T16:24:44;25.90;99.90
9845;DHT22;4961;50.782;6.080;2022-07-29T16:27:12;25.90;99.90
9845;DHT22;4961;50.782;6.080;2022-07-29T16:29:42;25.70;99.90
9845;DHT22;4961;50.782;6.080;2022-07-29T16:32:12;25.70;99.90
9845;DHT22;4961;50.782;6.080;2022-07-29T16:34:49;25.60;99.90